Terminal Aerodrome Forecast
Issued by NWS Memphis, TN

Home | Current Version | Previous Version | Text Only | Print | Product List | Glossary On
Versions: 1 2 3 4 5 6 7 8 9 10 11 12 13 14 15 16 17 18 19 20 21 22 23 24 25 26 27 28 29 30 31 32 33 34 35
000
FTUS44 KMEG 251322 AAA
TAFMEM
TAF AMD
KMEM 251322Z 2513/2612 18012G18KT P6SM OVC050
     FM252100 15012KT P6SM VCTS BKN050CB BKN250
      TEMPO 2602/2604 3SM TSRA BKN025CB
     FM260400 17012KT P6SM SHRA VCTS BKN025CB
     FM260800 18016G26KT P6SM -RA OVC025=

USA.gov is the U.S. government's official web portal to all federal, state and local government web resources and services.